Racecast

Rachael Lacey

Bella Vista (CA) · 12 · CVCCA D2SJS D2 · Compare head to head

Athlete rating 121.7 2011 XC season
Best race 124.2 XC
Races 47
Seasons 4 2009 — 2012

RankedNation #10343·CA #1736·CA D2 #794·SJS #145·SJS D2 #43·CVC #30·Team #16 ?

Speed rating — all races

Cross Country

XC speed rating

2011 XC 120.1

Bella Vista (CA) · Grade 12

Date Meet Event Result Place Rating Difficulty PR/SR Flags
2011-11-11 Willow Hills Reservoir Course 5000m 21:16 35th · 6th on team 121.6 +0.045 CSR
2011-11-05 Calaveras County Fairgrounds 4828m 20:59 35th · 5th on team 119.8 +0.065 ★PR ★CR SR CSR
2011-10-28 Willow Hills Reservoir Course 5000m 21:54.6 13th · 7th on team 118.1 +0.045 CSR
2011-10-15 Willow Hills Reservoir Course 5000m 22:01.2 50th · 2nd on team 118.1 +0.045 CSR
2011-10-12 Maidu Park 5000m 20:05.5 5th · 3rd on team 122.8 -0.007 ★PR ★CR SR CSR
2011-10-08 Woodward Park 5000m 20:24 48th · 4th on team 123.1 +0.013 PR ★CR SR CSR RSR
2011-09-24 Stanford University Golf Course 5000m 20:39 91st · 6th on team 120.1 +0.002 ★CR CSR
2011-09-14 Granite Park 5000m 21:07.6 7th · 4th on team 117.6 +0.002
2011-09-10 Granite Park 5000m 20:39 24th · 5th on team 121.4 +0.002 ★CR SR CSR
2011-09-03 Lagoon Valley Park 4828m 21:25 26th · 4th on team 117.4 +0.056 SR CSR
2011-08-26 Woodland High School 3218m 12:44 4th · 3rd on team 121.7 +0.024 SR CSR RSR

2010 XC 118.3

Bella Vista (CA) · Grade 11

Date Meet Event Result Place Rating Difficulty PR/SR Flags
2010-11-13 Willow Hills Reservoir Course 5000m 20:58 29th · 2nd on team 123.6 +0.045 ★CR CSR
2010-11-06 Calaveras County Fairgrounds 4828m 23:48 108th · 7th on team 107.7 +0.065 CR CSR
2010-10-29 Willow Hills Reservoir Course 5000m 21:03 8th · 4th on team 122.7 +0.045 CR CSR
2010-10-12 Granite Park 4828m 21:22 9th · 4th on team 114.4 +0.012 ★CR CSR
2010-10-09 Woodward Park 5000m 20:29 63rd · 4th on team 122.9 +0.013 PR CR SR CSR
2010-09-15 Granite Park 4828m 21:35 11th · 5th on team 112.1 +0.012 CR CSR
2010-09-04 Lagoon Valley Park 4828m 21:06.6 18th · 3rd on team 119.3 +0.056 PR ★CR SR CSR
2010-08-27 Woodland High School 3218m 12:32 3rd · 3rd on team 123.9 +0.024 ★PR ★CR SR CSR RSR

2009 XC 120.4

Bella Vista (CA) · Grade 10

Date Meet Event Result Place Rating Difficulty PR/SR Flags
2009-11-14 Willow Hills Reservoir Course 3400m 13:50 2nd · 1st on team 124.2 +0.043 ★PR ★CR ★R SR CSR RSR
2009-11-07 Calaveras County Fairgrounds 3218m 13:58 2nd · 1st on team 119.6 +0.084 PR ★CR SR CSR
2009-10-17 Willow Hills Reservoir Course 3400m 14:16.3 2nd · 1st on team 121.1 +0.043 PR CR R SR CSR RSR
2009-09-05 Lagoon Valley Park 3218m 14:47.3 4th · 1st on team 116.7 +0.121 PR ★CR R SR CSR RSR

Track & Field

TF speed rating

2012 TF 118.0

Bella Vista (CA) · Grade 12

Date Meet Event Result Place Rating Difficulty PR/SR Flags
2012-05-16 Sac Joaquin Section Division II-III Prelims 800m 2:34.6 17th · 3rd on team 117.5 -0.036
2012-05-11 Capital Valley Conference Finals 300mh 53.79 6th · 4th on team -0.020
2012-05-11 Capital Valley Conference Finals 800m 2:37.74 4th · 3rd on team 117.3 -0.020
2012-05-05 Bella Vista Bronco Invitational 1600m 5:53.99 9th · 4th on team 115.6 -0.036
2012-05-05 Bella Vista Bronco Invitational 300mh 52.6 3rd · 3rd on team -0.036 ★PR SR
2012-04-28 Sacramento Meet of Champions 800m 2:34.31 23rd · 3rd on team 118.0 -0.034
2012-04-20 Woody Wilson Invitational 800m 2:33.32 29th · 3rd on team 118.9 -0.034
2012-04-18 CVC Center Meet 3 800m 2:33.86 2nd · 2nd on team 119.0 -0.028
2012-04-14 Depth Charge 300mh 52.64 2nd · 1st on team -0.020 PR SR
2012-04-13 Bronco Roundup Distance Carnival 800m 2:33.79 10th · 2nd on team 118.6 -0.036
2012-03-28 CVC Center Meet 2 800m 2:32.16 4th · 3rd on team 121.2 -0.025
2012-03-21 CVC Center Meet 1 800m 2:28.91 5th · 3rd on team 121.7 -0.036 ★PR SR RSR
2012-03-17 Dublin Distance Fiesta 1600m 5:49.9 29th · 4th on team 117.4 -0.038 ★PR SR
2012-03-17 Dublin Distance Fiesta 800m 2:41.7 47th · 5th on team 112.9 -0.038
2012-03-10 Bob King - Don Gilbert Invitational 800m 2:33.71 8th · 1st on team 119.2 -0.027 PR SR RSR
2012-03-07 Bella Vista - Ponderosa Dual 800m 2:36.69 4th · 2nd on team 116.7 -0.036 PR SR RSR

2011 TF 109.6

Bella Vista (CA) · Grade 11

Date Meet Event Result Place Rating Difficulty PR/SR Flags
2011-05-12 Capital Valley Conference Finals 1600m 6:03.38 7th · 4th on team 112.6 -0.036 PR SR RSR
2011-05-12 Capital Valley Conference Finals 800m 2:48.4 12th · 4th on team 107.9 -0.036
2011-05-07 Folsom/Del Campo Distance Carnival 1600m 6:24.34 2nd · 1st on team 108.2 -0.020
2011-05-07 Folsom/Del Campo Distance Carnival 800m 2:44.44 2nd · 1st on team 112.4 -0.020 PR SR RSR
2011-04-28 CVC Center Meet 3 1600m 6:25.03 13th · 5th on team 108.0 -0.020
2011-04-08 Bronco Roundup Distance Carnival 1600m 6:06.95 40th · 6th on team 111.3 -0.036 PR SR RSR
2011-04-06 CVC Center Meet 2 1600m 6:27.58 18th · 7th on team 106.9 -0.025 PR SR RSR

2010 TF

Bella Vista (CA) · Grade 10

Date Meet Event Result Place Rating Difficulty PR/SR Flags
2010-05-13 Capital Athletic League Finals 400m 1:06.18 10th · 3rd on team -0.036 ★PR SR